createdAt,value
2022-12-20T00:01:34.725Z,0.01
2022-12-20T00:04:37.282Z,0.08
2022-12-20T00:07:39.572Z,0.25
2022-12-20T00:10:45.133Z,0.31
2022-12-20T00:13:47.499Z,0.31
2022-12-20T00:16:50.539Z,0.28
2022-12-20T00:19:52.867Z,0.42
2022-12-20T00:22:55.980Z,0.44
2022-12-20T00:26:19.867Z,0.42
2022-12-20T00:29:22.536Z,0.33
2022-12-20T00:32:24.772Z,0.38
2022-12-20T00:35:27.422Z,0.40
2022-12-20T00:38:30.309Z,0.56
2022-12-20T00:41:34.232Z,0.62
2022-12-20T00:44:36.581Z,0.68
2022-12-20T00:47:39.223Z,0.71
2022-12-20T00:50:41.524Z,0.50
2022-12-20T00:53:44.681Z,0.59
2022-12-20T00:56:46.960Z,0.41
2022-12-20T00:59:49.835Z,0.51
2022-12-20T01:02:52.273Z,0.72
2022-12-20T01:05:58.045Z,0.68
2022-12-20T01:09:00.840Z,0.62
2022-12-20T01:12:04.360Z,0.49
2022-12-20T01:15:07.380Z,0.65
2022-12-20T01:18:12.136Z,0.60
2022-12-20T01:21:16.214Z,0.57
2022-12-20T01:24:20.375Z,0.64
2022-12-20T01:27:23.036Z,0.61
2022-12-20T01:30:25.680Z,0.61
2022-12-20T01:33:28.071Z,0.58
2022-12-20T01:36:33.498Z,0.35
2022-12-20T01:39:36.367Z,0.48
2022-12-20T01:42:39.253Z,0.49
2022-12-20T01:45:41.740Z,0.59
2022-12-20T01:48:49.681Z,0.66
2022-12-20T01:52:03.914Z,0.45
2022-12-20T01:55:25.218Z,0.68
2022-12-20T01:58:27.760Z,0.67
2022-12-20T02:01:30.569Z,0.53
2022-12-20T02:04:33.525Z,0.55
2022-12-20T02:07:38.599Z,0.51
2022-12-20T02:10:57.587Z,0.50
2022-12-20T02:14:36.541Z,0.73
2022-12-20T02:18:07.513Z,0.75
2022-12-20T02:21:18.581Z,0.46
2022-12-20T02:24:42.993Z,0.72
2022-12-20T02:28:15.509Z,0.72
2022-12-20T02:31:26.532Z,0.72
2022-12-20T02:34:33.294Z,0.68
2022-12-20T02:37:36.316Z,0.73
2022-12-20T02:40:43.371Z,0.71
2022-12-20T02:44:15.230Z,0.53
2022-12-20T02:47:30.426Z,0.51
2022-12-20T02:50:38.488Z,0.70
2022-12-20T02:53:42.878Z,0.67
2022-12-20T02:56:57.425Z,0.48
2022-12-20T03:00:06.200Z,0.53
2022-12-20T03:03:25.090Z,0.49
2022-12-20T03:06:28.082Z,0.65
2022-12-20T03:09:32.974Z,0.47
2022-12-20T03:12:35.243Z,0.35
2022-12-20T03:15:37.922Z,0.67
2022-12-20T03:18:40.289Z,0.61
2022-12-20T03:21:43.125Z,0.57
2022-12-20T03:24:46.069Z,0.59
2022-12-20T03:27:48.819Z,0.64
2022-12-20T03:30:52.285Z,0.66
2022-12-20T03:33:55.351Z,0.48
2022-12-20T03:36:57.827Z,0.64
2022-12-20T03:40:00.592Z,0.62
2022-12-20T03:43:02.953Z,-0.04
2022-12-20T03:46:06.086Z,0.58
2022-12-20T03:49:09.501Z,0.39
2022-12-20T03:52:16.263Z,0.60
2022-12-20T03:55:18.734Z,0.63
2022-12-20T03:58:21.843Z,0.55
2022-12-20T04:01:27.823Z,0.60
2022-12-20T04:04:31.171Z,0.53
2022-12-20T04:07:34.124Z,0.55
2022-12-20T04:10:56.611Z,0.55
2022-12-20T04:14:00.108Z,0.53
2022-12-20T04:17:03.931Z,0.53
2022-12-20T04:20:27.885Z,0.51
2022-12-20T04:23:31.461Z,0.38
2022-12-20T04:26:33.954Z,0.33
2022-12-20T04:29:38.043Z,0.40
2022-12-20T04:32:40.934Z,0.39
2022-12-20T04:35:43.603Z,0.47
2022-12-20T04:38:46.030Z,0.31
2022-12-20T04:41:48.955Z,0.43
2022-12-20T04:44:51.266Z,0.48
2022-12-20T04:47:55.399Z,0.45
2022-12-20T04:50:58.271Z,0.59
2022-12-20T04:54:01.071Z,0.54
2022-12-20T04:57:04.559Z,0.59
2022-12-20T05:00:07.834Z,0.52
2022-12-20T05:03:12.900Z,0.59
2022-12-20T05:06:16.673Z,0.62
2022-12-20T05:09:19.025Z,0.60
2022-12-20T05:12:21.656Z,0.42
2022-12-20T05:15:23.921Z,0.63
2022-12-20T05:18:28.254Z,0.45
2022-12-20T05:21:49.949Z,0.45
2022-12-20T05:25:11.272Z,0.66
2022-12-20T05:28:13.702Z,0.50
2022-12-20T05:31:16.281Z,0.55
2022-12-20T05:34:19.429Z,0.65
2022-12-20T05:37:22.934Z,0.58
2022-12-20T05:40:25.275Z,0.65
2022-12-20T05:43:27.904Z,0.48
2022-12-20T05:46:31.190Z,0.47
2022-12-20T05:49:34.630Z,0.64
2022-12-20T05:52:37.247Z,0.34
2022-12-20T05:55:49.576Z,0.08
2022-12-20T05:58:53.435Z,0.57
2022-12-20T06:01:56.262Z,0.38
2022-12-20T06:04:59.429Z,0.59
2022-12-20T06:08:01.871Z,0.39
2022-12-20T06:11:05.194Z,0.54
2022-12-20T06:14:08.037Z,0.53
2022-12-20T06:17:12.331Z,0.39
2022-12-20T06:20:14.708Z,0.48
2022-12-20T06:23:18.426Z,0.47
2022-12-20T06:26:23.481Z,0.49
2022-12-20T06:29:26.447Z,0.57
2022-12-20T06:32:29.634Z,0.53
2022-12-20T06:35:32.684Z,0.56
2022-12-20T06:38:35.069Z,0.57
2022-12-20T06:41:37.861Z,0.57
2022-12-20T06:44:40.215Z,0.55
2022-12-20T06:47:42.905Z,0.38
2022-12-20T06:50:49.221Z,0.55
2022-12-20T06:53:55.484Z,0.59
2022-12-20T06:56:58.443Z,0.38
2022-12-20T07:00:01.444Z,0.66
2022-12-20T07:03:03.988Z,0.60
2022-12-20T07:06:06.806Z,0.67
2022-12-20T07:09:17.921Z,0.52
2022-12-20T07:12:20.554Z,0.56
2022-12-20T07:15:22.827Z,0.62
2022-12-20T07:18:25.599Z,0.87
2022-12-20T07:21:28.335Z,0.86
2022-12-20T07:24:31.066Z,0.93
2022-12-20T07:27:33.351Z,0.97
2022-12-20T07:30:37.332Z,1.01
2022-12-20T07:33:53.989Z,1.03
2022-12-20T07:36:58.097Z,0.77
2022-12-20T07:40:00.450Z,1.08
2022-12-20T07:43:02.957Z,1.07
2022-12-20T07:46:06.809Z,1.23
2022-12-20T07:49:21.788Z,1.28
2022-12-20T07:52:29.419Z,1.36
2022-12-20T07:55:33.538Z,1.36
2022-12-20T07:58:39.716Z,1.50
2022-12-20T08:01:45.298Z,1.55
2022-12-20T08:04:48.899Z,1.63
2022-12-20T08:07:58.490Z,1.58
2022-12-20T08:11:03.718Z,1.54
2022-12-20T08:14:08.262Z,1.58
2022-12-20T08:17:12.001Z,1.64
2022-12-20T08:20:16.060Z,1.51
2022-12-20T08:23:19.602Z,1.73
2022-12-20T08:26:21.931Z,1.67
2022-12-20T08:29:24.678Z,1.58
2022-12-20T08:32:27.663Z,1.65
2022-12-20T08:35:31.525Z,1.62
2022-12-20T08:38:34.561Z,1.73
2022-12-20T08:41:37.683Z,1.95
2022-12-20T08:44:40.147Z,2.46
2022-12-20T08:47:43.036Z,3.00
2022-12-20T08:50:45.584Z,3.36
2022-12-20T08:53:58.591Z,3.63
2022-12-20T08:57:01.038Z,3.91
2022-12-20T09:00:04.218Z,3.77
2022-12-20T09:03:07.938Z,4.38
2022-12-20T09:06:16.471Z,4.62
2022-12-20T09:09:18.982Z,4.98
2022-12-20T09:12:21.859Z,5.09
2022-12-20T09:15:24.348Z,5.01
2022-12-20T09:18:27.016Z,5.65
2022-12-20T09:21:29.597Z,5.79
2022-12-20T09:24:32.688Z,5.96
2022-12-20T09:27:35.000Z,6.18
2022-12-20T09:30:38.635Z,6.24
2022-12-20T09:33:42.858Z,6.48
2022-12-20T09:36:46.168Z,6.82
2022-12-20T09:39:51.854Z,6.45
2022-12-20T09:42:54.755Z,6.90
2022-12-20T09:46:00.140Z,7.03
2022-12-20T09:49:04.203Z,7.03
2022-12-20T09:52:21.732Z,6.95
2022-12-20T09:55:30.183Z,7.03
2022-12-20T09:58:45.279Z,7.08
2022-12-20T10:01:50.527Z,7.20
2022-12-20T10:05:01.707Z,6.99
2022-12-20T10:08:13.096Z,6.67
2022-12-20T10:12:04.519Z,6.80
2022-12-20T10:15:15.159Z,6.85
2022-12-20T10:18:23.582Z,7.83
2022-12-20T10:21:47.586Z,8.05
2022-12-20T10:25:02.535Z,8.07
2022-12-20T10:28:25.557Z,8.32
2022-12-20T10:31:28.409Z,8.21
2022-12-20T10:34:37.335Z,8.63
2022-12-20T10:38:07.190Z,8.71
2022-12-20T10:41:22.206Z,8.82
2022-12-20T10:44:28.519Z,8.98
2022-12-20T10:47:38.027Z,8.50
2022-12-20T10:50:40.756Z,8.70
2022-12-20T10:54:03.290Z,8.61
2022-12-20T10:57:27.169Z,8.62
2022-12-20T11:00:31.133Z,8.14
2022-12-20T11:03:33.945Z,7.03
2022-12-20T11:06:39.438Z,6.45
2022-12-20T11:09:59.509Z,6.24
2022-12-20T11:13:03.794Z,5.79
2022-12-20T11:16:22.185Z,5.42
2022-12-20T11:19:38.584Z,5.62
2022-12-20T11:23:03.781Z,6.37
2022-12-20T11:26:31.998Z,6.60
2022-12-20T11:29:35.524Z,6.52
2022-12-20T11:33:07.178Z,6.34
2022-12-20T11:36:31.781Z,6.24
2022-12-20T11:39:43.180Z,6.14
2022-12-20T11:43:28.797Z,5.83
2022-12-20T11:46:52.292Z,5.76
2022-12-20T11:50:34.011Z,5.83
2022-12-20T11:53:50.814Z,6.00
2022-12-20T11:56:59.992Z,6.30
2022-12-20T12:00:02.883Z,6.64
2022-12-20T12:03:18.598Z,6.82
2022-12-20T12:06:28.992Z,6.68
2022-12-20T12:10:14.586Z,6.66
2022-12-20T12:13:35.350Z,6.98
2022-12-20T12:16:44.780Z,7.51
2022-12-20T12:19:51.197Z,7.22
2022-12-20T12:23:01.329Z,6.61
2022-12-20T12:26:25.532Z,6.47
2022-12-20T12:29:29.912Z,6.01
2022-12-20T12:32:44.194Z,6.18
2022-12-20T12:35:56.780Z,5.89
2022-12-20T12:39:14.794Z,5.63
2022-12-20T12:42:44.364Z,5.45
2022-12-20T12:45:56.046Z,5.39
2022-12-20T12:49:07.456Z,5.01
2022-12-20T12:52:33.864Z,5.12
2022-12-20T12:55:50.515Z,4.92
2022-12-20T12:59:20.755Z,4.80
2022-12-20T13:02:29.349Z,4.69
2022-12-20T13:05:34.581Z,4.53
2022-12-20T13:09:09.362Z,4.42
2022-12-20T13:12:40.582Z,4.35
2022-12-20T13:15:42.884Z,4.16
2022-12-20T13:19:10.762Z,4.31
2022-12-20T13:22:13.028Z,4.01
2022-12-20T13:25:30.631Z,4.20
2022-12-20T13:28:33.455Z,4.15
2022-12-20T13:31:36.115Z,4.07
2022-12-20T13:34:54.416Z,3.87
2022-12-20T13:38:35.756Z,3.99
2022-12-20T13:41:47.049Z,4.08
2022-12-20T13:44:53.109Z,3.82
2022-12-20T13:48:05.180Z,4.01
2022-12-20T13:51:18.077Z,3.98
2022-12-20T13:54:26.839Z,3.89
2022-12-20T13:57:50.962Z,3.91
2022-12-20T14:00:54.400Z,3.90
2022-12-20T14:03:58.234Z,3.89
2022-12-20T14:07:02.373Z,3.84
2022-12-20T14:10:18.312Z,3.67
2022-12-20T14:13:27.809Z,3.82
2022-12-20T14:16:33.059Z,3.60
2022-12-20T14:19:35.532Z,3.70
2022-12-20T14:22:42.282Z,3.68
2022-12-20T14:26:00.774Z,3.50
2022-12-20T14:29:06.682Z,3.54
2022-12-20T14:32:21.764Z,3.65
2022-12-20T14:35:25.009Z,3.46
2022-12-20T14:38:31.652Z,3.54
2022-12-20T14:41:40.252Z,3.39
2022-12-20T14:44:42.626Z,3.28
2022-12-20T14:48:03.627Z,3.32
2022-12-20T14:51:06.176Z,3.33
2022-12-20T14:54:47.734Z,3.26
2022-12-20T14:57:52.013Z,3.24
2022-12-20T15:01:04.895Z,3.20
2022-12-20T15:04:21.871Z,3.19
2022-12-20T15:07:32.153Z,3.10
2022-12-20T15:10:34.486Z,3.07
2022-12-20T15:13:43.038Z,2.87
2022-12-20T15:16:48.798Z,2.98
2022-12-20T15:19:51.412Z,2.99
2022-12-20T15:22:53.801Z,2.94
2022-12-20T15:25:56.705Z,2.80
2022-12-20T15:28:59.155Z,2.75
2022-12-20T15:32:09.416Z,2.69
2022-12-20T15:35:16.061Z,2.76
2022-12-20T15:38:34.776Z,2.78
2022-12-20T15:41:47.246Z,2.74
2022-12-20T15:44:50.602Z,2.56
2022-12-20T15:47:53.147Z,2.69
2022-12-20T15:50:58.539Z,2.70
2022-12-20T15:54:03.417Z,2.47
2022-12-20T15:57:11.475Z,2.63
2022-12-20T16:00:16.372Z,2.44
2022-12-20T16:03:23.273Z,2.51
2022-12-20T16:06:26.068Z,2.44
2022-12-20T16:09:28.876Z,2.58
2022-12-20T16:12:35.732Z,2.37
2022-12-20T16:15:38.413Z,2.33
2022-12-20T16:18:40.805Z,2.40
2022-12-20T16:21:48.932Z,2.54
2022-12-20T16:24:52.884Z,2.56
2022-12-20T16:27:56.472Z,2.50
2022-12-20T16:30:58.862Z,2.57
2022-12-20T16:34:04.250Z,2.56
2022-12-20T16:37:06.824Z,2.55
2022-12-20T16:40:10.518Z,2.52
2022-12-20T16:43:16.076Z,2.46
2022-12-20T16:46:21.408Z,2.51
2022-12-20T16:49:24.311Z,2.49
2022-12-20T16:52:28.093Z,2.50
2022-12-20T16:55:37.697Z,2.44
2022-12-20T16:59:17.136Z,2.39
2022-12-20T17:02:21.089Z,2.24
2022-12-20T17:05:33.726Z,2.42
2022-12-20T17:11:58.164Z,2.40
2022-12-20T17:15:00.611Z,2.42
2022-12-20T17:18:06.462Z,2.34
2022-12-20T17:31:59.879Z,2.38
2022-12-20T17:35:02.739Z,1.60
2022-12-20T17:38:07.605Z,2.17
2022-12-20T17:41:26.928Z,1.82
2022-12-20T17:44:31.670Z,2.18
2022-12-20T17:47:34.338Z,2.19
2022-12-20T17:50:36.711Z,2.14
2022-12-20T17:53:39.330Z,2.12
2022-12-20T17:56:41.668Z,2.27
2022-12-20T17:59:44.739Z,2.32
2022-12-20T18:02:47.198Z,2.21
2022-12-20T18:05:49.917Z,2.06
2022-12-20T18:08:57.086Z,2.09
2022-12-20T18:11:59.678Z,2.24
2022-12-20T18:15:04.074Z,2.28
2022-12-20T18:18:08.824Z,2.24
2022-12-20T18:21:16.703Z,2.16
2022-12-20T18:24:20.756Z,2.10
2022-12-20T18:27:30.170Z,2.19
2022-12-20T18:30:33.525Z,2.18
2022-12-20T18:33:36.309Z,2.21
2022-12-20T18:36:39.187Z,2.06
2022-12-20T18:39:41.943Z,2.15
2022-12-20T18:42:45.013Z,1.99
2022-12-20T18:45:47.422Z,2.07
2022-12-20T18:48:53.611Z,2.12
2022-12-20T18:51:55.946Z,1.94
2022-12-20T18:54:58.961Z,1.96
2022-12-20T18:58:01.283Z,2.02
2022-12-20T19:01:12.626Z,1.95
2022-12-20T19:04:20.832Z,2.12
2022-12-20T19:07:26.884Z,2.14
2022-12-20T19:10:33.156Z,2.10
2022-12-20T19:13:37.907Z,1.83
2022-12-20T19:16:40.433Z,2.10
2022-12-20T19:19:43.188Z,2.05
2022-12-20T19:22:45.490Z,2.05
2022-12-20T19:25:48.646Z,1.92
2022-12-20T19:28:51.483Z,2.01
2022-12-20T19:31:54.365Z,2.06
2022-12-20T19:34:56.679Z,2.10
2022-12-20T19:37:59.334Z,2.08
2022-12-20T19:41:04.433Z,2.08
2022-12-20T19:44:07.597Z,2.06
2022-12-20T19:47:09.917Z,1.89
2022-12-20T19:50:13.066Z,2.08
2022-12-20T19:53:15.522Z,2.06
2022-12-20T19:56:28.867Z,2.05
2022-12-20T19:59:31.573Z,2.06
2022-12-20T20:02:36.826Z,1.92
2022-12-20T20:05:39.566Z,1.79
2022-12-20T20:08:42.212Z,2.07
2022-12-20T20:11:44.995Z,2.06
2022-12-20T20:14:47.613Z,2.10
2022-12-20T20:17:51.272Z,1.94
2022-12-20T20:20:55.499Z,2.01
2022-12-20T20:23:59.462Z,2.16
2022-12-20T20:27:01.974Z,1.84
2022-12-20T20:30:07.123Z,2.20
2022-12-20T20:33:12.961Z,2.03
2022-12-20T20:36:22.202Z,2.23
2022-12-20T20:39:24.804Z,1.38
2022-12-20T20:42:29.361Z,2.22
2022-12-20T20:45:34.560Z,2.19
2022-12-20T20:48:38.237Z,2.20
2022-12-20T20:51:40.795Z,2.04
2022-12-20T20:54:43.585Z,2.20
2022-12-20T20:57:46.075Z,2.15
2022-12-20T21:00:51.728Z,2.22
2022-12-20T21:03:54.324Z,2.20
2022-12-20T21:06:57.995Z,2.05
2022-12-20T21:10:00.570Z,2.24
2022-12-20T21:13:03.703Z,2.10
2022-12-20T21:16:12.666Z,1.61
2022-12-20T21:19:15.662Z,2.18
2022-12-20T21:22:18.333Z,2.17
2022-12-20T21:25:24.312Z,2.15
2022-12-20T21:28:41.824Z,2.11
2022-12-20T21:31:47.777Z,2.15
2022-12-20T21:34:50.295Z,2.12
2022-12-20T21:37:53.360Z,1.54
2022-12-20T21:41:03.122Z,1.83
2022-12-20T21:44:06.015Z,2.08
2022-12-20T21:47:08.658Z,2.11
2022-12-20T21:50:14.237Z,2.14
2022-12-20T21:53:19.646Z,2.13
2022-12-20T21:56:24.141Z,1.96
2022-12-20T21:59:27.373Z,1.95
2022-12-20T22:02:30.127Z,2.09
2022-12-20T22:05:32.797Z,2.11
2022-12-20T22:08:35.860Z,2.12
2022-12-20T22:11:39.517Z,1.93
2022-12-20T22:14:41.858Z,2.10
2022-12-20T22:17:45.020Z,1.99
2022-12-20T22:20:47.702Z,2.08
2022-12-20T22:23:50.431Z,1.91
2022-12-20T22:26:52.866Z,2.10
2022-12-20T22:29:55.703Z,2.07
2022-12-20T22:32:58.365Z,2.06
2022-12-20T22:36:05.245Z,1.93
2022-12-20T22:39:08.514Z,1.92
2022-12-20T22:42:11.169Z,1.84
2022-12-20T22:45:13.784Z,1.94
2022-12-20T22:48:16.406Z,1.88
2022-12-20T22:51:21.551Z,2.13
2022-12-20T22:54:24.296Z,1.97
2022-12-20T22:57:27.736Z,2.14
2022-12-20T23:00:30.360Z,1.95
2022-12-20T23:03:32.963Z,2.11
2022-12-20T23:06:35.846Z,2.13
2022-12-20T23:09:38.220Z,2.12
2022-12-20T23:13:16.492Z,1.94
2022-12-20T23:16:19.201Z,2.09
2022-12-20T23:19:21.961Z,2.03
2022-12-20T23:22:40.374Z,2.18
2022-12-20T23:25:43.276Z,2.18
2022-12-20T23:28:45.594Z,2.00
2022-12-20T23:31:48.277Z,2.00
2022-12-20T23:34:50.866Z,2.19
2022-12-20T23:37:55.933Z,1.61
2022-12-20T23:40:58.300Z,2.18
2022-12-20T23:44:03.534Z,2.09
2022-12-20T23:47:06.049Z,2.16
2022-12-20T23:50:09.041Z,1.95
2022-12-20T23:53:15.195Z,2.09
2022-12-20T23:56:23.526Z,2.05
2022-12-20T23:59:28.315Z,2.11
